sensor_id;sensor_type;location;lat;lon;timestamp;P1;durP1;ratioP1;P2;durP2;ratioP2
33553;SDS011;19885;42.208;24.952;2023-04-15T00:01:25;2.93;;;1.97;;
33553;SDS011;19885;42.208;24.952;2023-04-15T00:03:51;4.23;;;1.70;;
33553;SDS011;19885;42.208;24.952;2023-04-15T00:06:18;4.97;;;1.70;;
33553;SDS011;19885;42.208;24.952;2023-04-15T00:08:45;3.57;;;1.70;;
33553;SDS011;19885;42.208;24.952;2023-04-15T00:11:10;4.57;;;1.97;;
33553;SDS011;19885;42.208;24.952;2023-04-15T00:13:36;3.30;;;1.67;;
33553;SDS011;19885;42.208;24.952;2023-04-15T00:16:03;5.90;;;1.70;;
33553;SDS011;19885;42.208;24.952;2023-04-15T00:18:30;5.50;;;1.93;;
33553;SDS011;19885;42.208;24.952;2023-04-15T00:20:56;5.57;;;2.10;;
33553;SDS011;19885;42.208;24.952;2023-04-15T00:23:21;9.13;;;2.27;;
33553;SDS011;19885;42.208;24.952;2023-04-15T00:25:47;5.37;;;1.73;;
33553;SDS011;19885;42.208;24.952;2023-04-15T00:28:13;5.67;;;1.83;;
33553;SDS011;19885;42.208;24.952;2023-04-15T00:30:38;4.40;;;2.03;;
33553;SDS011;19885;42.208;24.952;2023-04-15T00:33:04;3.57;;;1.70;;
33553;SDS011;19885;42.208;24.952;2023-04-15T00:35:30;3.90;;;1.47;;
33553;SDS011;19885;42.208;24.952;2023-04-15T00:37:58;4.60;;;1.93;;
33553;SDS011;19885;42.208;24.952;2023-04-15T00:40:24;3.63;;;2.00;;
33553;SDS011;19885;42.208;24.952;2023-04-15T00:42:50;3.50;;;2.13;;
33553;SDS011;19885;42.208;24.952;2023-04-15T00:45:16;1.97;;;1.50;;
33553;SDS011;19885;42.208;24.952;2023-04-15T00:47:43;3.97;;;1.73;;
33553;SDS011;19885;42.208;24.952;2023-04-15T00:50:09;3.70;;;1.70;;
33553;SDS011;19885;42.208;24.952;2023-04-15T00:52:35;3.47;;;2.07;;
33553;SDS011;19885;42.208;24.952;2023-04-15T00:55:01;2.70;;;1.87;;
33553;SDS011;19885;42.208;24.952;2023-04-15T00:57:28;2.37;;;1.80;;
33553;SDS011;19885;42.208;24.952;2023-04-15T00:59:54;3.03;;;1.83;;
33553;SDS011;19885;42.208;24.952;2023-04-15T01:02:21;3.33;;;1.83;;
33553;SDS011;19885;42.208;24.952;2023-04-15T01:04:48;5.50;;;1.80;;
33553;SDS011;19885;42.208;24.952;2023-04-15T01:07:14;4.90;;;2.63;;
33553;SDS011;19885;42.208;24.952;2023-04-15T01:09:40;2.40;;;2.07;;
33553;SDS011;19885;42.208;24.952;2023-04-15T01:12:11;5.30;;;2.67;;
33553;SDS011;19885;42.208;24.952;2023-04-15T01:14:40;4.90;;;1.90;;
33553;SDS011;19885;42.208;24.952;2023-04-15T01:17:06;3.63;;;2.33;;
33553;SDS011;19885;42.208;24.952;2023-04-15T01:19:31;2.43;;;2.00;;
33553;SDS011;19885;42.208;24.952;2023-04-15T01:21:57;3.97;;;2.77;;
33553;SDS011;19885;42.208;24.952;2023-04-15T01:24:23;4.33;;;2.27;;
33553;SDS011;19885;42.208;24.952;2023-04-15T01:26:51;3.10;;;2.10;;
33553;SDS011;19885;42.208;24.952;2023-04-15T01:29:17;11.23;;;2.57;;
33553;SDS011;19885;42.208;24.952;2023-04-15T01:31:52;3.50;;;2.23;;
33553;SDS011;19885;42.208;24.952;2023-04-15T01:34:20;6.03;;;2.70;;
33553;SDS011;19885;42.208;24.952;2023-04-15T01:36:46;2.07;;;1.87;;
33553;SDS011;19885;42.208;24.952;2023-04-15T01:39:12;3.73;;;2.50;;
33553;SDS011;19885;42.208;24.952;2023-04-15T01:41:38;3.70;;;2.90;;
33553;SDS011;19885;42.208;24.952;2023-04-15T01:44:04;5.23;;;3.10;;
33553;SDS011;19885;42.208;24.952;2023-04-15T01:46:31;2.87;;;2.60;;
33553;SDS011;19885;42.208;24.952;2023-04-15T01:48:57;4.00;;;2.30;;
33553;SDS011;19885;42.208;24.952;2023-04-15T01:51:22;7.53;;;3.03;;
33553;SDS011;19885;42.208;24.952;2023-04-15T01:53:48;5.27;;;2.33;;
33553;SDS011;19885;42.208;24.952;2023-04-15T01:56:13;6.13;;;2.53;;
33553;SDS011;19885;42.208;24.952;2023-04-15T01:58:41;6.40;;;2.93;;
33553;SDS011;19885;42.208;24.952;2023-04-15T02:01:08;4.40;;;2.83;;
33553;SDS011;19885;42.208;24.952;2023-04-15T02:03:37;5.67;;;2.50;;
33553;SDS011;19885;42.208;24.952;2023-04-15T02:06:03;7.10;;;3.07;;
33553;SDS011;19885;42.208;24.952;2023-04-15T02:08:30;3.87;;;2.63;;
33553;SDS011;19885;42.208;24.952;2023-04-15T02:10:55;5.53;;;3.13;;
33553;SDS011;19885;42.208;24.952;2023-04-15T02:13:21;3.90;;;2.87;;
33553;SDS011;19885;42.208;24.952;2023-04-15T02:15:47;4.67;;;2.67;;
33553;SDS011;19885;42.208;24.952;2023-04-15T02:18:14;5.50;;;2.60;;
33553;SDS011;19885;42.208;24.952;2023-04-15T02:20:41;4.13;;;2.40;;
33553;SDS011;19885;42.208;24.952;2023-04-15T02:23:07;10.30;;;3.17;;
33553;SDS011;19885;42.208;24.952;2023-04-15T02:25:33;3.73;;;2.57;;
33553;SDS011;19885;42.208;24.952;2023-04-15T02:27:59;6.27;;;2.63;;
33553;SDS011;19885;42.208;24.952;2023-04-15T02:30:25;4.13;;;2.90;;
33553;SDS011;19885;42.208;24.952;2023-04-15T02:32:51;5.10;;;3.10;;
33553;SDS011;19885;42.208;24.952;2023-04-15T02:35:16;9.03;;;3.00;;
33553;SDS011;19885;42.208;24.952;2023-04-15T02:37:44;4.43;;;2.93;;
33553;SDS011;19885;42.208;24.952;2023-04-15T02:40:10;3.97;;;2.50;;
33553;SDS011;19885;42.208;24.952;2023-04-15T02:42:37;4.33;;;3.00;;
33553;SDS011;19885;42.208;24.952;2023-04-15T02:45:03;7.70;;;3.13;;
33553;SDS011;19885;42.208;24.952;2023-04-15T02:47:30;5.33;;;3.00;;
33553;SDS011;19885;42.208;24.952;2023-04-15T02:49:56;6.50;;;3.13;;
33553;SDS011;19885;42.208;24.952;2023-04-15T02:52:24;5.60;;;2.93;;
33553;SDS011;19885;42.208;24.952;2023-04-15T02:54:50;10.87;;;3.83;;
33553;SDS011;19885;42.208;24.952;2023-04-15T02:57:16;7.53;;;3.10;;
33553;SDS011;19885;42.208;24.952;2023-04-15T02:59:41;5.07;;;3.07;;
33553;SDS011;19885;42.208;24.952;2023-04-15T03:02:06;10.90;;;3.13;;
33553;SDS011;19885;42.208;24.952;2023-04-15T03:04:32;3.60;;;3.13;;
33553;SDS011;19885;42.208;24.952;2023-04-15T03:06:58;5.00;;;3.33;;
33553;SDS011;19885;42.208;24.952;2023-04-15T03:09:25;7.70;;;3.13;;
33553;SDS011;19885;42.208;24.952;2023-04-15T03:11:50;3.87;;;2.93;;
33553;SDS011;19885;42.208;24.952;2023-04-15T03:14:18;4.60;;;3.67;;
33553;SDS011;19885;42.208;24.952;2023-04-15T03:16:44;8.33;;;4.30;;
33553;SDS011;19885;42.208;24.952;2023-04-15T03:19:09;8.43;;;3.87;;
33553;SDS011;19885;42.208;24.952;2023-04-15T03:21:35;10.17;;;4.20;;
33553;SDS011;19885;42.208;24.952;2023-04-15T03:24:00;7.57;;;3.27;;
33553;SDS011;19885;42.208;24.952;2023-04-15T03:26:29;12.07;;;3.77;;
33553;SDS011;19885;42.208;24.952;2023-04-15T03:28:56;6.20;;;4.23;;
33553;SDS011;19885;42.208;24.952;2023-04-15T03:31:21;11.27;;;3.73;;
33553;SDS011;19885;42.208;24.952;2023-04-15T03:33:47;6.83;;;3.93;;
33553;SDS011;19885;42.208;24.952;2023-04-15T03:36:13;6.87;;;3.37;;
33553;SDS011;19885;42.208;24.952;2023-04-15T03:38:38;6.23;;;3.73;;
33553;SDS011;19885;42.208;24.952;2023-04-15T03:41:04;7.73;;;5.03;;
33553;SDS011;19885;42.208;24.952;2023-04-15T03:43:30;9.37;;;5.13;;
33553;SDS011;19885;42.208;24.952;2023-04-15T03:45:55;9.27;;;4.23;;
33553;SDS011;19885;42.208;24.952;2023-04-15T03:48:21;7.97;;;3.83;;
33553;SDS011;19885;42.208;24.952;2023-04-15T03:50:46;5.00;;;4.00;;
33553;SDS011;19885;42.208;24.952;2023-04-15T03:53:12;5.73;;;3.83;;
33553;SDS011;19885;42.208;24.952;2023-04-15T03:55:37;5.50;;;4.10;;
33553;SDS011;19885;42.208;24.952;2023-04-15T03:58:03;5.80;;;4.77;;
33553;SDS011;19885;42.208;24.952;2023-04-15T04:00:29;14.37;;;4.53;;
33553;SDS011;19885;42.208;24.952;2023-04-15T04:02:55;8.33;;;4.67;;
33553;SDS011;19885;42.208;24.952;2023-04-15T04:05:22;5.03;;;4.03;;
33553;SDS011;19885;42.208;24.952;2023-04-15T04:07:48;14.40;;;4.23;;
33553;SDS011;19885;42.208;24.952;2023-04-15T04:10:14;11.27;;;4.77;;
33553;SDS011;19885;42.208;24.952;2023-04-15T04:12:41;7.53;;;4.87;;
33553;SDS011;19885;42.208;24.952;2023-04-15T04:15:10;7.00;;;4.67;;
33553;SDS011;19885;42.208;24.952;2023-04-15T04:17:36;12.30;;;4.83;;
33553;SDS011;19885;42.208;24.952;2023-04-15T04:20:03;7.73;;;4.87;;
33553;SDS011;19885;42.208;24.952;2023-04-15T04:22:36;9.03;;;5.10;;
33553;SDS011;19885;42.208;24.952;2023-04-15T04:25:05;7.43;;;5.27;;
33553;SDS011;19885;42.208;24.952;2023-04-15T04:27:32;8.90;;;5.43;;
33553;SDS011;19885;42.208;24.952;2023-04-15T04:29:59;9.60;;;5.00;;
33553;SDS011;19885;42.208;24.952;2023-04-15T04:32:28;11.07;;;5.93;;
33553;SDS011;19885;42.208;24.952;2023-04-15T04:34:54;8.10;;;5.20;;
33553;SDS011;19885;42.208;24.952;2023-04-15T04:37:21;12.63;;;5.70;;
33553;SDS011;19885;42.208;24.952;2023-04-15T04:39:48;8.67;;;4.97;;
33553;SDS011;19885;42.208;24.952;2023-04-15T04:42:14;8.50;;;4.53;;
33553;SDS011;19885;42.208;24.952;2023-04-15T04:44:40;9.03;;;4.70;;
33553;SDS011;19885;42.208;24.952;2023-04-15T04:47:06;6.97;;;5.80;;
33553;SDS011;19885;42.208;24.952;2023-04-15T04:49:32;7.03;;;5.23;;
33553;SDS011;19885;42.208;24.952;2023-04-15T04:51:58;9.53;;;4.67;;
33553;SDS011;19885;42.208;24.952;2023-04-15T04:54:23;9.07;;;4.70;;
33553;SDS011;19885;42.208;24.952;2023-04-15T04:56:49;6.67;;;4.97;;
33553;SDS011;19885;42.208;24.952;2023-04-15T04:59:15;6.97;;;3.57;;
33553;SDS011;19885;42.208;24.952;2023-04-15T05:01:40;8.23;;;4.33;;
33553;SDS011;19885;42.208;24.952;2023-04-15T05:04:06;7.70;;;3.97;;
33553;SDS011;19885;42.208;24.952;2023-04-15T05:06:32;5.77;;;3.67;;
33553;SDS011;19885;42.208;24.952;2023-04-15T05:08:58;8.20;;;3.23;;
33553;SDS011;19885;42.208;24.952;2023-04-15T05:11:25;4.23;;;2.80;;
33553;SDS011;19885;42.208;24.952;2023-04-15T05:13:51;8.93;;;3.90;;
33553;SDS011;19885;42.208;24.952;2023-04-15T05:16:16;4.53;;;2.93;;
33553;SDS011;19885;42.208;24.952;2023-04-15T05:18:42;10.43;;;2.97;;
33553;SDS011;19885;42.208;24.952;2023-04-15T05:21:07;6.67;;;4.07;;
33553;SDS011;19885;42.208;24.952;2023-04-15T05:23:33;6.77;;;3.33;;
33553;SDS011;19885;42.208;24.952;2023-04-15T05:25:59;4.67;;;3.70;;
33553;SDS011;19885;42.208;24.952;2023-04-15T05:28:24;5.63;;;3.57;;
33553;SDS011;19885;42.208;24.952;2023-04-15T05:30:50;6.13;;;3.83;;
33553;SDS011;19885;42.208;24.952;2023-04-15T05:33:15;9.07;;;5.30;;
33553;SDS011;19885;42.208;24.952;2023-04-15T05:35:41;9.03;;;5.10;;
33553;SDS011;19885;42.208;24.952;2023-04-15T05:38:07;5.33;;;4.17;;
33553;SDS011;19885;42.208;24.952;2023-04-15T05:40:32;4.27;;;3.40;;
33553;SDS011;19885;42.208;24.952;2023-04-15T05:42:58;5.00;;;3.73;;
33553;SDS011;19885;42.208;24.952;2023-04-15T05:45:23;7.07;;;5.33;;
33553;SDS011;19885;42.208;24.952;2023-04-15T05:47:48;10.10;;;4.73;;
33553;SDS011;19885;42.208;24.952;2023-04-15T05:50:15;6.27;;;4.23;;
33553;SDS011;19885;42.208;24.952;2023-04-15T05:52:40;7.90;;;5.20;;
33553;SDS011;19885;42.208;24.952;2023-04-15T05:55:06;11.53;;;6.37;;
33553;SDS011;19885;42.208;24.952;2023-04-15T05:57:32;9.13;;;5.93;;
33553;SDS011;19885;42.208;24.952;2023-04-15T05:59:57;8.33;;;5.67;;
33553;SDS011;19885;42.208;24.952;2023-04-15T06:02:23;10.83;;;6.17;;
33553;SDS011;19885;42.208;24.952;2023-04-15T06:04:48;9.90;;;6.63;;
33553;SDS011;19885;42.208;24.952;2023-04-15T06:07:14;11.73;;;6.90;;
33553;SDS011;19885;42.208;24.952;2023-04-15T06:09:39;13.23;;;8.30;;
33553;SDS011;19885;42.208;24.952;2023-04-15T06:12:05;13.13;;;8.20;;
33553;SDS011;19885;42.208;24.952;2023-04-15T06:14:36;14.83;;;7.93;;
33553;SDS011;19885;42.208;24.952;2023-04-15T06:17:02;13.43;;;8.10;;
33553;SDS011;19885;42.208;24.952;2023-04-15T06:19:27;15.23;;;8.43;;
33553;SDS011;19885;42.208;24.952;2023-04-15T06:21:53;12.83;;;8.40;;
33553;SDS011;19885;42.208;24.952;2023-04-15T06:24:19;11.33;;;7.93;;
33553;SDS011;19885;42.208;24.952;2023-04-15T06:26:44;14.97;;;8.20;;
33553;SDS011;19885;42.208;24.952;2023-04-15T06:29:10;18.03;;;9.90;;
33553;SDS011;19885;42.208;24.952;2023-04-15T06:31:35;21.03;;;9.93;;
33553;SDS011;19885;42.208;24.952;2023-04-15T06:34:01;15.20;;;9.60;;
33553;SDS011;19885;42.208;24.952;2023-04-15T06:36:26;17.80;;;11.40;;
33553;SDS011;19885;42.208;24.952;2023-04-15T06:38:52;14.93;;;10.33;;
33553;SDS011;19885;42.208;24.952;2023-04-15T06:41:18;19.00;;;10.93;;
33553;SDS011;19885;42.208;24.952;2023-04-15T06:43:43;24.07;;;9.73;;
33553;SDS011;19885;42.208;24.952;2023-04-15T06:46:09;13.73;;;9.07;;
33553;SDS011;19885;42.208;24.952;2023-04-15T06:48:35;18.83;;;10.20;;
33553;SDS011;19885;42.208;24.952;2023-04-15T06:51:00;14.90;;;11.07;;
33553;SDS011;19885;42.208;24.952;2023-04-15T06:53:26;18.03;;;10.87;;
33553;SDS011;19885;42.208;24.952;2023-04-15T06:55:53;22.20;;;11.77;;
33553;SDS011;19885;42.208;24.952;2023-04-15T06:58:19;18.73;;;11.23;;
33553;SDS011;19885;42.208;24.952;2023-04-15T07:00:44;17.83;;;12.43;;
33553;SDS011;19885;42.208;24.952;2023-04-15T07:03:11;15.57;;;11.40;;
33553;SDS011;19885;42.208;24.952;2023-04-15T07:05:37;18.97;;;11.60;;
33553;SDS011;19885;42.208;24.952;2023-04-15T07:08:03;17.30;;;11.30;;
33553;SDS011;19885;42.208;24.952;2023-04-15T07:10:28;19.27;;;10.40;;
33553;SDS011;19885;42.208;24.952;2023-04-15T07:12:55;17.83;;;10.77;;
33553;SDS011;19885;42.208;24.952;2023-04-15T07:15:21;16.13;;;10.00;;
33553;SDS011;19885;42.208;24.952;2023-04-15T07:17:47;14.67;;;10.27;;
33553;SDS011;19885;42.208;24.952;2023-04-15T07:20:13;19.00;;;11.90;;
33553;SDS011;19885;42.208;24.952;2023-04-15T07:22:38;17.73;;;9.93;;
33553;SDS011;19885;42.208;24.952;2023-04-15T07:25:05;13.43;;;9.70;;
33553;SDS011;19885;42.208;24.952;2023-04-15T07:27:31;20.13;;;10.30;;
33553;SDS011;19885;42.208;24.952;2023-04-15T07:29:57;20.93;;;10.23;;
33553;SDS011;19885;42.208;24.952;2023-04-15T07:32:22;13.37;;;9.50;;
33553;SDS011;19885;42.208;24.952;2023-04-15T07:34:48;15.90;;;9.53;;
33553;SDS011;19885;42.208;24.952;2023-04-15T07:37:13;19.00;;;9.37;;
33553;SDS011;19885;42.208;24.952;2023-04-15T07:39:39;16.40;;;8.63;;
33553;SDS011;19885;42.208;24.952;2023-04-15T07:42:04;19.70;;;9.23;;
33553;SDS011;19885;42.208;24.952;2023-04-15T07:44:30;16.27;;;8.23;;
33553;SDS011;19885;42.208;24.952;2023-04-15T07:46:58;14.13;;;8.47;;
33553;SDS011;19885;42.208;24.952;2023-04-15T07:49:24;12.77;;;9.40;;
33553;SDS011;19885;42.208;24.952;2023-04-15T07:51:50;14.17;;;8.57;;
33553;SDS011;19885;42.208;24.952;2023-04-15T07:54:15;15.13;;;8.07;;
33553;SDS011;19885;42.208;24.952;2023-04-15T07:56:41;14.13;;;7.93;;
33553;SDS011;19885;42.208;24.952;2023-04-15T07:59:06;11.93;;;8.43;;
33553;SDS011;19885;42.208;24.952;2023-04-15T08:01:33;12.03;;;7.93;;
33553;SDS011;19885;42.208;24.952;2023-04-15T08:03:58;15.97;;;8.33;;
33553;SDS011;19885;42.208;24.952;2023-04-15T08:06:27;12.43;;;8.07;;
33553;SDS011;19885;42.208;24.952;2023-04-15T08:08:52;24.03;;;8.33;;
33553;SDS011;19885;42.208;24.952;2023-04-15T08:11:20;16.43;;;8.57;;
33553;SDS011;19885;42.208;24.952;2023-04-15T08:13:48;16.60;;;8.43;;
33553;SDS011;19885;42.208;24.952;2023-04-15T08:16:18;9.17;;;6.23;;
33553;SDS011;19885;42.208;24.952;2023-04-15T08:18:48;10.83;;;7.43;;
33553;SDS011;19885;42.208;24.952;2023-04-15T08:21:15;9.43;;;6.90;;
33553;SDS011;19885;42.208;24.952;2023-04-15T08:23:42;12.17;;;7.40;;
33553;SDS011;19885;42.208;24.952;2023-04-15T08:26:08;9.77;;;7.00;;
33553;SDS011;19885;42.208;24.952;2023-04-15T08:28:33;10.40;;;7.10;;
33553;SDS011;19885;42.208;24.952;2023-04-15T08:30:59;12.10;;;8.60;;
33553;SDS011;19885;42.208;24.952;2023-04-15T08:33:25;15.13;;;8.13;;
33553;SDS011;19885;42.208;24.952;2023-04-15T08:35:50;8.53;;;6.60;;
33553;SDS011;19885;42.208;24.952;2023-04-15T08:38:16;15.73;;;7.80;;
33553;SDS011;19885;42.208;24.952;2023-04-15T08:40:47;13.20;;;9.00;;
33553;SDS011;19885;42.208;24.952;2023-04-15T08:43:32;10.67;;;7.77;;
33553;SDS011;19885;42.208;24.952;2023-04-15T08:45:59;17.43;;;9.10;;
33553;SDS011;19885;42.208;24.952;2023-04-15T08:48:31;10.33;;;8.10;;
33553;SDS011;19885;42.208;24.952;2023-04-15T08:50:58;10.83;;;8.73;;
33553;SDS011;19885;42.208;24.952;2023-04-15T08:53:24;15.83;;;8.87;;
33553;SDS011;19885;42.208;24.952;2023-04-15T08:55:51;18.00;;;10.63;;
33553;SDS011;19885;42.208;24.952;2023-04-15T08:58:19;18.43;;;9.80;;
33553;SDS011;19885;42.208;24.952;2023-04-15T09:00:44;9.10;;;7.67;;
33553;SDS011;19885;42.208;24.952;2023-04-15T09:03:12;9.53;;;7.67;;
33553;SDS011;19885;42.208;24.952;2023-04-15T09:05:41;10.37;;;7.07;;
33553;SDS011;19885;42.208;24.952;2023-04-15T09:08:07;10.23;;;7.20;;
33553;SDS011;19885;42.208;24.952;2023-04-15T09:10:33;9.60;;;6.20;;
33553;SDS011;19885;42.208;24.952;2023-04-15T09:13:00;9.53;;;6.90;;
33553;SDS011;19885;42.208;24.952;2023-04-15T09:15:26;8.43;;;6.60;;
33553;SDS011;19885;42.208;24.952;2023-04-15T09:17:53;10.77;;;6.60;;
33553;SDS011;19885;42.208;24.952;2023-04-15T09:20:20;10.13;;;6.03;;
33553;SDS011;19885;42.208;24.952;2023-04-15T09:22:46;10.23;;;5.30;;
33553;SDS011;19885;42.208;24.952;2023-04-15T09:27:47;9.60;;;6.27;;
33553;SDS011;19885;42.208;24.952;2023-04-15T09:30:13;12.43;;;6.83;;
33553;SDS011;19885;42.208;24.952;2023-04-15T09:32:47;11.37;;;6.07;;
33553;SDS011;19885;42.208;24.952;2023-04-15T09:35:22;7.17;;;5.37;;
33553;SDS011;19885;42.208;24.952;2023-04-15T09:37:49;8.67;;;5.93;;
33553;SDS011;19885;42.208;24.952;2023-04-15T09:40:36;11.87;;;6.40;;
33553;SDS011;19885;42.208;24.952;2023-04-15T09:43:06;6.43;;;5.27;;
33553;SDS011;19885;42.208;24.952;2023-04-15T09:45:33;8.37;;;5.47;;
33553;SDS011;19885;42.208;24.952;2023-04-15T09:50:49;10.30;;;5.10;;
33553;SDS011;19885;42.208;24.952;2023-04-15T09:53:18;14.63;;;8.85;;
33553;SDS011;19885;42.208;24.952;2023-04-15T09:55:48;9.87;;;5.03;;
33553;SDS011;19885;42.208;24.952;2023-04-15T09:58:33;11.07;;;5.00;;
33553;SDS011;19885;42.208;24.952;2023-04-15T10:01:00;11.57;;;4.47;;
33553;SDS011;19885;42.208;24.952;2023-04-15T10:03:28;5.73;;;4.10;;
33553;SDS011;19885;42.208;24.952;2023-04-15T10:05:55;6.60;;;4.10;;
33553;SDS011;19885;42.208;24.952;2023-04-15T10:08:24;14.63;;;7.43;;
33553;SDS011;19885;42.208;24.952;2023-04-15T10:10:54;12.70;;;7.10;;
33553;SDS011;19885;42.208;24.952;2023-04-15T10:13:24;5.53;;;3.97;;
33553;SDS011;19885;42.208;24.952;2023-04-15T10:16:26;9.40;;;4.60;;
33553;SDS011;19885;42.208;24.952;2023-04-15T10:18:46;7.40;;;4.00;;
33553;SDS011;19885;42.208;24.952;2023-04-15T10:21:15;9.87;;;4.20;;
33553;SDS011;19885;42.208;24.952;2023-04-15T10:23:45;5.18;;;3.95;;
33553;SDS011;19885;42.208;24.952;2023-04-15T10:26:11;7.72;;;4.18;;
33553;SDS011;19885;42.208;24.952;2023-04-15T10:28:39;7.72;;;4.07;;
33553;SDS011;19885;42.208;24.952;2023-04-15T10:31:11;7.72;;;3.78;;
33553;SDS011;19885;42.208;24.952;2023-04-15T10:33:40;5.85;;;3.33;;
33553;SDS011;19885;42.208;24.952;2023-04-15T10:36:07;4.65;;;3.58;;
33553;SDS011;19885;42.208;24.952;2023-04-15T10:38:34;4.80;;;3.20;;
33553;SDS011;19885;42.208;24.952;2023-04-15T10:43:52;27.63;;;25.67;;
33553;SDS011;19885;42.208;24.952;2023-04-15T10:47:08;6.55;;;2.85;;
33553;SDS011;19885;42.208;24.952;2023-04-15T10:49:15;8.52;;;3.25;;
33553;SDS011;19885;42.208;24.952;2023-04-15T10:52:06;7.55;;;2.88;;
33553;SDS011;19885;42.208;24.952;2023-04-15T10:54:32;5.93;;;2.67;;
33553;SDS011;19885;42.208;24.952;2023-04-15T10:59:32;42.67;;;19.57;;
33553;SDS011;19885;42.208;24.952;2023-04-15T11:02:04;4.45;;;2.40;;
33553;SDS011;19885;42.208;24.952;2023-04-15T11:07:35;3.00;;;1.77;;
33553;SDS011;19885;42.208;24.952;2023-04-15T11:12:40;9.60;;;2.05;;
33553;SDS011;19885;42.208;24.952;2023-04-15T11:18:09;3.42;;;1.25;;
33553;SDS011;19885;42.208;24.952;2023-04-15T11:20:43;4.85;;;1.60;;
33553;SDS011;19885;42.208;24.952;2023-04-15T11:23:10;2.58;;;1.25;;
33553;SDS011;19885;42.208;24.952;2023-04-15T11:25:36;3.33;;;1.83;;
33553;SDS011;19885;42.208;24.952;2023-04-15T11:28:02;1.83;;;1.10;;
33553;SDS011;19885;42.208;24.952;2023-04-15T11:30:29;3.13;;;1.40;;
33553;SDS011;19885;42.208;24.952;2023-04-15T11:33:01;11.48;;;1.60;;
33553;SDS011;19885;42.208;24.952;2023-04-15T11:35:29;3.03;;;1.77;;
33553;SDS011;19885;42.208;24.952;2023-04-15T11:37:54;3.15;;;1.10;;
33553;SDS011;19885;42.208;24.952;2023-04-15T11:40:23;2.88;;;1.50;;
33553;SDS011;19885;42.208;24.952;2023-04-15T11:45:55;3.55;;;1.50;;
33553;SDS011;19885;42.208;24.952;2023-04-15T11:48:26;2.33;;;1.83;;
33553;SDS011;19885;42.208;24.952;2023-04-15T11:51:05;16.75;;;2.15;;
33553;SDS011;19885;42.208;24.952;2023-04-15T11:56:20;2.85;;;1.63;;
33553;SDS011;19885;42.208;24.952;2023-04-15T11:58:47;4.97;;;1.10;;
33553;SDS011;19885;42.208;24.952;2023-04-15T12:01:15;12.93;;;3.42;;
33553;SDS011;19885;42.208;24.952;2023-04-15T12:03:42;3.53;;;1.15;;
33553;SDS011;19885;42.208;24.952;2023-04-15T12:11:55;21.67;;;6.55;;
33553;SDS011;19885;42.208;24.952;2023-04-15T12:17:01;159.47;;;75.43;;
33553;SDS011;19885;42.208;24.952;2023-04-15T12:19:30;108.13;;;66.50;;
33553;SDS011;19885;42.208;24.952;2023-04-15T12:22:07;218.20;;;149.20;;
33553;SDS011;19885;42.208;24.952;2023-04-15T12:24:34;166.77;;;83.33;;
33553;SDS011;19885;42.208;24.952;2023-04-15T12:27:04;170.23;;;87.40;;
33553;SDS011;19885;42.208;24.952;2023-04-15T12:29:31;503.83;;;283.43;;
33553;SDS011;19885;42.208;24.952;2023-04-15T12:32:03;1016.00;;;646.67;;
33553;SDS011;19885;42.208;24.952;2023-04-15T12:34:32;547.07;;;211.43;;
33553;SDS011;19885;42.208;24.952;2023-04-15T12:37:01;689.33;;;461.70;;
33553;SDS011;19885;42.208;24.952;2023-04-15T12:39:29;18.30;;;14.03;;
33553;SDS011;19885;42.208;24.952;2023-04-15T12:41:56;10.30;;;8.40;;
33553;SDS011;19885;42.208;24.952;2023-04-15T12:44:24;30.40;;;28.50;;
33553;SDS011;19885;42.208;24.952;2023-04-15T12:46:53;39.27;;;36.97;;
33553;SDS011;19885;42.208;24.952;2023-04-15T12:49:22;47.80;;;45.07;;
33553;SDS011;19885;42.208;24.952;2023-04-15T12:51:48;50.10;;;47.47;;
33553;SDS011;19885;42.208;24.952;2023-04-15T12:54:17;39.83;;;37.60;;
33553;SDS011;19885;42.208;24.952;2023-04-15T12:56:46;3.40;;;1.20;;
33553;SDS011;19885;42.208;24.952;2023-04-15T12:59:15;17.42;;;4.55;;
33553;SDS011;19885;42.208;24.952;2023-04-15T13:01:47;1.92;;;1.40;;
33553;SDS011;19885;42.208;24.952;2023-04-15T13:04:15;4.97;;;2.42;;
33553;SDS011;19885;42.208;24.952;2023-04-15T13:06:41;2.10;;;1.65;;
33553;SDS011;19885;42.208;24.952;2023-04-15T13:09:07;3.47;;;1.38;;
33553;SDS011;19885;42.208;24.952;2023-04-15T13:11:32;5.47;;;1.70;;
33553;SDS011;19885;42.208;24.952;2023-04-15T13:14:04;2.00;;;1.58;;
33553;SDS011;19885;42.208;24.952;2023-04-15T13:16:33;3.95;;;1.60;;
33553;SDS011;19885;42.208;24.952;2023-04-15T13:18:59;3.33;;;2.17;;
33553;SDS011;19885;42.208;24.952;2023-04-15T13:21:26;4.75;;;1.65;;
33553;SDS011;19885;42.208;24.952;2023-04-15T13:23:54;10.37;;;9.07;;
33553;SDS011;19885;42.208;24.952;2023-04-15T13:26:20;9.43;;;8.33;;
33553;SDS011;19885;42.208;24.952;2023-04-15T13:28:45;18.30;;;16.37;;
33553;SDS011;19885;42.208;24.952;2023-04-15T13:31:11;650.13;;;349.63;;
33553;SDS011;19885;42.208;24.952;2023-04-15T13:33:36;16.33;;;14.87;;
33553;SDS011;19885;42.208;24.952;2023-04-15T13:36:02;15.33;;;14.10;;
33553;SDS011;19885;42.208;24.952;2023-04-15T13:38:28;7.13;;;5.97;;
33553;SDS011;19885;42.208;24.952;2023-04-15T13:40:53;15.53;;;14.47;;
33553;SDS011;19885;42.208;24.952;2023-04-15T13:43:19;12.57;;;11.70;;
33553;SDS011;19885;42.208;24.952;2023-04-15T13:45:45;48.53;;;24.20;;
33553;SDS011;19885;42.208;24.952;2023-04-15T13:48:11;131.07;;;54.40;;
33553;SDS011;19885;42.208;24.952;2023-04-15T13:50:36;55.37;;;51.40;;
33553;SDS011;19885;42.208;24.952;2023-04-15T13:53:02;67.23;;;46.97;;
33553;SDS011;19885;42.208;24.952;2023-04-15T13:55:27;101.57;;;52.97;;
33553;SDS011;19885;42.208;24.952;2023-04-15T13:57:53;53.53;;;38.23;;
33553;SDS011;19885;42.208;24.952;2023-04-15T14:00:18;167.13;;;72.87;;
33553;SDS011;19885;42.208;24.952;2023-04-15T14:02:43;105.27;;;57.97;;
33553;SDS011;19885;42.208;24.952;2023-04-15T14:05:09;131.27;;;53.73;;
33553;SDS011;19885;42.208;24.952;2023-04-15T14:07:38;157.68;;;62.80;;
33553;SDS011;19885;42.208;24.952;2023-04-15T14:10:03;61.83;;;37.87;;
33553;SDS011;19885;42.208;24.952;2023-04-15T14:12:33;24.70;;;23.30;;
33553;SDS011;19885;42.208;24.952;2023-04-15T14:14:58;19.80;;;13.73;;
33553;SDS011;19885;42.208;24.952;2023-04-15T14:17:23;57.83;;;28.73;;
33553;SDS011;19885;42.208;24.952;2023-04-15T14:19:49;19.93;;;13.40;;
33553;SDS011;19885;42.208;24.952;2023-04-15T14:22:15;13.73;;;6.67;;
33553;SDS011;19885;42.208;24.952;2023-04-15T14:24:43;23.13;;;14.67;;
33553;SDS011;19885;42.208;24.952;2023-04-15T14:27:15;130.80;;;60.17;;
33553;SDS011;19885;42.208;24.952;2023-04-15T14:29:41;166.17;;;54.93;;
33553;SDS011;19885;42.208;24.952;2023-04-15T14:32:06;168.27;;;65.03;;
33553;SDS011;19885;42.208;24.952;2023-04-15T14:34:32;129.60;;;75.30;;
33553;SDS011;19885;42.208;24.952;2023-04-15T14:36:57;101.15;;;44.00;;
33553;SDS011;19885;42.208;24.952;2023-04-15T14:39:23;23.43;;;21.40;;
33553;SDS011;19885;42.208;24.952;2023-04-15T14:41:48;99.97;;;54.05;;
33553;SDS011;19885;42.208;24.952;2023-04-15T14:44:14;101.43;;;54.43;;
33553;SDS011;19885;42.208;24.952;2023-04-15T14:46:40;118.90;;;55.17;;
33553;SDS011;19885;42.208;24.952;2023-04-15T14:49:05;62.05;;;32.10;;
33553;SDS011;19885;42.208;24.952;2023-04-15T14:51:32;97.03;;;55.28;;
33553;SDS011;19885;42.208;24.952;2023-04-15T14:53:57;74.07;;;48.88;;
33553;SDS011;19885;42.208;24.952;2023-04-15T14:58:50;65.20;;;47.80;;
33553;SDS011;19885;42.208;24.952;2023-04-15T17:17:51;35.50;;;32.25;;